createdAt,value
2019-05-10T00:00:13.453Z,4.90
2019-05-10T00:03:00.019Z,4.62
2019-05-10T00:05:47.678Z,4.10
2019-05-10T00:08:34.466Z,3.75
2019-05-10T00:11:07.548Z,4.35
2019-05-10T00:13:39.100Z,3.60
2019-05-10T00:16:07.805Z,3.02
2019-05-10T00:18:36.261Z,3.02
2019-05-10T00:21:04.656Z,3.20
2019-05-10T00:23:33.079Z,3.42
2019-05-10T00:26:01.507Z,3.52
2019-05-10T00:28:29.954Z,3.50
2019-05-10T00:30:58.730Z,3.47
2019-05-10T00:33:27.145Z,3.95
2019-05-10T00:35:55.562Z,4.10
2019-05-10T00:38:23.977Z,4.03
2019-05-10T00:40:52.421Z,3.80
2019-05-10T00:43:20.839Z,3.72
2019-05-10T00:45:49.258Z,3.15
2019-05-10T00:48:17.736Z,3.20
2019-05-10T00:50:46.141Z,2.98
2019-05-10T00:53:14.866Z,3.52
2019-05-10T00:55:43.255Z,2.95
2019-05-10T00:58:11.693Z,3.50
2019-05-10T01:00:40.078Z,3.40
2019-05-10T01:03:08.697Z,2.98
2019-05-10T01:05:37.099Z,3.15
2019-05-10T01:08:05.510Z,3.52
2019-05-10T01:10:33.996Z,3.50
2019-05-10T01:13:02.560Z,3.40
2019-05-10T01:15:30.989Z,2.90
2019-05-10T01:17:59.424Z,2.90
2019-05-10T01:20:27.852Z,2.90
2019-05-10T01:22:56.440Z,3.00
2019-05-10T01:25:34.485Z,3.25
2019-05-10T01:27:55.141Z,3.10
2019-05-10T01:30:23.816Z,3.42
2019-05-10T01:32:52.668Z,3.10
2019-05-10T01:35:21.156Z,3.30
2019-05-10T01:37:49.547Z,3.22
2019-05-10T01:40:18.030Z,3.27
2019-05-10T01:42:46.443Z,3.50
2019-05-10T01:45:15.041Z,3.47
2019-05-10T01:47:43.447Z,3.10
2019-05-10T01:50:12.790Z,2.95
2019-05-10T01:52:41.203Z,3.22
2019-05-10T01:55:09.809Z,3.70
2019-05-10T01:57:38.287Z,4.25
2019-05-10T02:00:08.550Z,3.33
2019-05-10T02:02:37.160Z,4.17
2019-05-10T02:05:06.521Z,3.62
2019-05-10T02:07:35.201Z,3.42
2019-05-10T02:10:06.197Z,3.27
2019-05-10T02:12:34.677Z,3.52
2019-05-10T02:15:03.461Z,3.62
2019-05-10T02:17:31.889Z,3.60
2019-05-10T02:20:00.316Z,4.30
2019-05-10T02:22:28.731Z,3.58
2019-05-10T02:24:57.155Z,3.90
2019-05-10T02:27:25.809Z,3.80
2019-05-10T02:29:54.241Z,4.03
2019-05-10T02:32:22.667Z,3.60
2019-05-10T02:34:51.166Z,3.80
2019-05-10T02:37:19.558Z,4.45
2019-05-10T02:39:47.997Z,4.80
2019-05-10T02:42:16.696Z,3.90
2019-05-10T02:44:45.110Z,4.10
2019-05-10T02:47:13.852Z,4.58
2019-05-10T02:49:42.257Z,4.12
2019-05-10T02:52:10.858Z,4.12
2019-05-10T02:54:39.261Z,4.22
2019-05-10T02:57:08.241Z,4.70
2019-05-10T02:59:37.492Z,4.30
2019-05-10T03:02:06.718Z,4.00
2019-05-10T03:04:36.882Z,5.03
2019-05-10T03:07:07.103Z,4.62
2019-05-10T03:09:35.515Z,4.42
2019-05-10T03:12:24.712Z,4.10
2019-05-10T03:14:57.807Z,4.85
2019-05-10T03:17:27.684Z,4.42
2019-05-10T03:19:56.312Z,4.17
2019-05-10T03:22:25.920Z,4.10
2019-05-10T03:24:54.722Z,4.58
2019-05-10T03:27:23.275Z,4.97
2019-05-10T03:29:52.238Z,4.30
2019-05-10T03:32:21.583Z,4.75
2019-05-10T03:34:50.090Z,5.85
2019-05-10T03:37:18.612Z,6.53
2019-05-10T03:39:47.051Z,7.25
2019-05-10T03:42:15.775Z,7.33
2019-05-10T03:44:44.705Z,7.45
2019-05-10T03:47:13.181Z,7.22
2019-05-10T03:49:41.619Z,7.15
2019-05-10T03:52:10.053Z,6.62
2019-05-10T03:54:38.455Z,6.42
2019-05-10T03:57:13.786Z,5.90
2019-05-10T03:59:37.060Z,6.30
2019-05-10T04:02:05.517Z,6.28
2019-05-10T04:04:33.940Z,6.30
2019-05-10T04:07:02.362Z,5.80
2019-05-10T04:09:31.871Z,5.85
2019-05-10T04:12:00.377Z,6.42
2019-05-10T04:14:28.851Z,5.95
2019-05-10T04:16:57.282Z,6.78
2019-05-10T04:19:26.009Z,6.25
2019-05-10T04:21:54.415Z,5.92
2019-05-10T04:24:22.819Z,6.10
2019-05-10T04:26:51.297Z,6.70
2019-05-10T04:29:19.747Z,7.07
2019-05-10T04:31:48.234Z,7.90
2019-05-10T04:34:16.660Z,7.28
2019-05-10T04:36:45.086Z,7.25
2019-05-10T04:39:13.568Z,7.28
2019-05-10T04:41:41.967Z,7.05
2019-05-10T04:44:10.414Z,6.50
2019-05-10T04:46:38.788Z,6.78
2019-05-10T04:49:07.289Z,7.30
2019-05-10T04:51:35.695Z,6.60
2019-05-10T04:54:04.236Z,6.40
2019-05-10T04:56:32.667Z,6.35
2019-05-10T04:59:01.074Z,6.63
2019-05-10T05:01:29.475Z,7.28
2019-05-10T05:03:57.918Z,6.53
2019-05-10T05:06:26.377Z,6.62
2019-05-10T05:08:55.053Z,6.70
2019-05-10T05:11:23.439Z,6.97
2019-05-10T05:13:51.929Z,7.00
2019-05-10T05:16:20.332Z,6.00
2019-05-10T05:18:49.428Z,6.47
2019-05-10T05:21:17.974Z,6.20
2019-05-10T05:23:46.474Z,6.87
2019-05-10T05:26:14.907Z,7.05
2019-05-10T05:28:43.334Z,7.10
2019-05-10T05:31:11.745Z,6.87
2019-05-10T05:33:41.093Z,7.15
2019-05-10T05:36:09.528Z,7.53
2019-05-10T05:38:40.297Z,7.10
2019-05-10T05:41:08.136Z,7.80
2019-05-10T05:43:45.808Z,6.90
2019-05-10T05:46:06.717Z,7.17
2019-05-10T05:48:40.422Z,6.55
2019-05-10T05:51:05.332Z,7.35
2019-05-10T05:53:35.788Z,7.13
2019-05-10T05:56:12.692Z,7.22
2019-05-10T05:58:38.290Z,7.20
2019-05-10T06:01:04.431Z,7.03
2019-05-10T06:03:32.852Z,7.15
2019-05-10T06:06:01.268Z,7.80
2019-05-10T06:08:30.336Z,7.63
2019-05-10T06:11:00.012Z,7.72
2019-05-10T06:13:30.956Z,6.97
2019-05-10T06:16:00.264Z,7.73
2019-05-10T06:18:29.239Z,8.05
2019-05-10T06:20:57.636Z,8.20
2019-05-10T06:23:29.211Z,8.38
2019-05-10T06:25:56.578Z,7.40
2019-05-10T06:28:32.383Z,8.08
2019-05-10T06:30:55.255Z,7.35
2019-05-10T06:33:23.692Z,7.87
2019-05-10T06:35:52.099Z,7.87
2019-05-10T06:38:20.547Z,7.37
2019-05-10T06:40:48.976Z,8.00
2019-05-10T06:43:17.390Z,8.05
2019-05-10T06:45:46.660Z,8.43
2019-05-10T06:48:25.763Z,7.43
2019-05-10T06:50:46.203Z,7.45
2019-05-10T06:53:14.618Z,8.25
2019-05-10T06:55:43.040Z,7.50
2019-05-10T06:58:11.454Z,8.08
2019-05-10T07:00:45.062Z,8.05
2019-05-10T07:03:10.301Z,7.95
2019-05-10T07:05:38.723Z,8.45
2019-05-10T07:08:14.935Z,6.78
2019-05-10T07:10:37.309Z,8.33
2019-05-10T07:13:06.603Z,7.65
2019-05-10T07:15:41.525Z,8.33
2019-05-10T07:18:05.525Z,8.13
2019-05-10T07:20:34.690Z,7.87
2019-05-10T07:23:05.988Z,7.83
2019-05-10T07:25:37.626Z,8.20
2019-05-10T07:28:03.658Z,8.40
2019-05-10T07:30:34.733Z,8.10
2019-05-10T07:35:36.319Z,7.37
2019-05-10T07:38:01.286Z,7.97
2019-05-10T07:40:29.813Z,8.08
2019-05-10T07:42:58.267Z,7.07
2019-05-10T07:45:27.301Z,7.22
2019-05-10T07:47:56.362Z,8.25
2019-05-10T07:50:24.777Z,7.78
2019-05-10T07:52:54.437Z,7.20
2019-05-10T07:55:28.065Z,8.70
2019-05-10T07:57:53.046Z,8.13
2019-05-10T08:00:25.210Z,8.03
2019-05-10T08:03:02.423Z,7.27
2019-05-10T08:05:22.049Z,7.75
2019-05-10T08:07:50.475Z,8.33
2019-05-10T08:10:21.578Z,7.60
2019-05-10T08:12:49.073Z,7.72
2019-05-10T08:15:19.739Z,7.72
2019-05-10T08:17:50.640Z,7.93
2019-05-10T08:20:33.343Z,7.85
2019-05-10T08:22:48.789Z,8.17
2019-05-10T08:25:17.220Z,8.40
2019-05-10T08:27:50.425Z,8.33
2019-05-10T08:30:27.973Z,8.87
2019-05-10T08:32:49.833Z,8.00
2019-05-10T08:35:18.839Z,7.42
2019-05-10T08:37:47.501Z,8.30
2019-05-10T08:40:19.832Z,8.15
2019-05-10T08:42:54.165Z,8.50
2019-05-10T08:45:16.686Z,8.40
2019-05-10T08:47:45.587Z,8.93
2019-05-10T08:50:29.332Z,9.63
2019-05-10T08:52:44.573Z,9.58
2019-05-10T08:55:13.312Z,9.58
2019-05-10T08:57:44.392Z,9.68
2019-05-10T09:00:13.303Z,8.87
2019-05-10T09:02:42.839Z,8.58
2019-05-10T09:05:12.552Z,8.75
2019-05-10T09:07:42.916Z,9.00
2019-05-10T09:10:12.845Z,7.87
2019-05-10T09:12:50.570Z,8.56
2019-05-10T09:15:13.433Z,7.95
2019-05-10T09:17:42.989Z,8.33
2019-05-10T09:20:21.083Z,8.65
2019-05-10T09:22:42.660Z,8.43
2019-05-10T09:25:12.873Z,8.63
2019-05-10T09:27:43.186Z,7.65
2019-05-10T09:30:14.234Z,7.62
2019-05-10T09:32:43.532Z,8.00
2019-05-10T09:35:13.096Z,6.60
2019-05-10T09:37:42.213Z,6.70
2019-05-10T09:40:13.194Z,7.05
2019-05-10T09:42:43.633Z,7.08
2019-05-10T09:45:12.819Z,6.67
2019-05-10T09:47:43.345Z,6.90
2019-05-10T09:50:12.774Z,6.50
2019-05-10T09:52:41.396Z,5.58
2019-05-10T09:55:14.576Z,6.10
2019-05-10T09:57:40.297Z,6.28
2019-05-10T10:00:10.353Z,6.03
2019-05-10T10:02:40.665Z,6.77
2019-05-10T10:05:09.905Z,6.57
2019-05-10T10:07:38.353Z,6.70
2019-05-10T10:10:07.537Z,6.60
2019-05-10T10:12:37.324Z,7.20
2019-05-10T10:15:09.203Z,6.70
2019-05-10T10:17:41.971Z,5.83
2019-05-10T10:20:08.568Z,4.78
2019-05-10T10:22:38.166Z,4.93
2019-05-10T10:25:07.548Z,4.60
2019-05-10T10:27:39.262Z,4.62
2019-05-10T10:30:12.730Z,4.60
2019-05-10T10:32:39.719Z,5.78
2019-05-10T10:35:13.284Z,5.60
2019-05-10T10:37:39.180Z,6.05
2019-05-10T10:40:08.897Z,6.22
2019-05-10T10:42:38.272Z,5.47
2019-05-10T10:45:08.450Z,5.40
2019-05-10T10:47:38.046Z,4.40
2019-05-10T10:50:13.179Z,4.33
2019-05-10T10:52:38.777Z,3.85
2019-05-10T10:55:11.309Z,3.90
2019-05-10T10:57:39.290Z,3.95
2019-05-10T11:00:10.458Z,4.03
2019-05-10T11:05:09.107Z,3.60
2019-05-10T11:07:41.064Z,2.83
2019-05-10T11:10:17.875Z,2.95
2019-05-10T11:12:41.056Z,3.40
2019-05-10T11:15:11.225Z,3.30
2019-05-10T11:17:40.726Z,3.60
2019-05-10T11:20:11.502Z,3.00
2019-05-10T11:22:41.843Z,3.47
2019-05-10T11:25:12.884Z,3.70
2019-05-10T11:27:41.568Z,3.25
2019-05-10T11:30:12.084Z,3.60
2019-05-10T11:32:41.862Z,3.47
2019-05-10T11:35:11.791Z,3.45
2019-05-10T11:37:45.395Z,3.60
2019-05-10T11:40:11.786Z,3.58
2019-05-10T11:42:43.803Z,3.30
2019-05-10T11:45:11.212Z,3.80
2019-05-10T11:47:40.878Z,3.47
2019-05-10T11:50:10.764Z,3.90
2019-05-10T11:52:40.740Z,3.77
2019-05-10T11:55:11.415Z,3.65
2019-05-10T11:57:43.958Z,3.83
2019-05-10T12:00:24.447Z,3.40
2019-05-10T12:05:19.963Z,3.65
2019-05-10T12:07:45.612Z,4.10
2019-05-10T12:10:20.697Z,4.45
2019-05-10T12:13:00.562Z,4.20
2019-05-10T12:15:13.991Z,4.50
2019-05-10T12:17:46.330Z,4.43
2019-05-10T12:20:16.829Z,3.90
2019-05-10T12:22:47.447Z,4.30
2019-05-10T12:25:35.916Z,4.25
2019-05-10T12:26:18.753Z,3.55
2019-05-10T12:27:49.194Z,4.50
2019-05-10T12:30:16.202Z,4.50
2019-05-10T12:32:55.827Z,4.12
2019-05-10T12:35:15.301Z,4.13
2019-05-10T12:37:46.263Z,4.30
2019-05-10T12:40:15.331Z,4.60
2019-05-10T12:42:46.913Z,4.32
2019-05-10T12:45:15.443Z,4.30
2019-05-10T12:47:43.858Z,4.10
2019-05-10T12:50:13.157Z,4.00
2019-05-10T12:52:43.199Z,4.20
2019-05-10T12:55:12.547Z,3.93
2019-05-10T12:57:43.430Z,4.70
2019-05-10T13:00:13.981Z,4.50
2019-05-10T13:02:44.793Z,4.40
2019-05-10T13:05:15.651Z,4.45
2019-05-10T13:07:43.706Z,3.80
2019-05-10T13:10:12.703Z,4.20
2019-05-10T13:12:44.181Z,4.37
2019-05-10T13:15:11.599Z,4.13
2019-05-10T13:17:44.207Z,4.05
2019-05-10T13:20:10.719Z,4.92
2019-05-10T13:22:39.491Z,5.15
2019-05-10T13:25:08.906Z,5.17
2019-05-10T13:27:37.765Z,4.90
2019-05-10T13:30:07.430Z,5.03
2019-05-10T13:32:35.852Z,4.53
2019-05-10T13:35:05.709Z,4.78
2019-05-10T13:37:34.296Z,4.62
2019-05-10T13:40:05.289Z,4.80
2019-05-10T13:42:36.773Z,4.80
2019-05-10T13:45:04.676Z,5.37
2019-05-10T13:47:33.357Z,4.95
2019-05-10T13:50:02.049Z,5.00
2019-05-10T13:52:37.741Z,4.50
2019-05-10T13:55:00.679Z,4.60
2019-05-10T13:57:29.107Z,4.72
2019-05-10T13:59:57.665Z,4.75
2019-05-10T14:02:32.640Z,4.60
2019-05-10T14:04:56.260Z,4.78
2019-05-10T14:07:24.716Z,4.35
2019-05-10T14:09:53.121Z,4.28
2019-05-10T14:12:23.179Z,5.00
2019-05-10T14:14:55.380Z,5.22
2019-05-10T14:17:23.031Z,4.35
2019-05-10T14:19:51.451Z,4.95
2019-05-10T14:22:19.995Z,5.22
2019-05-10T14:24:53.151Z,4.22
2019-05-10T14:27:18.537Z,5.17
2019-05-10T14:29:46.940Z,4.28
2019-05-10T14:32:15.421Z,4.78
2019-05-10T14:34:44.566Z,4.47
2019-05-10T14:37:19.195Z,4.15
2019-05-10T14:39:44.222Z,4.30
2019-05-10T14:42:12.647Z,4.40
2019-05-10T14:44:41.046Z,4.28
2019-05-10T14:47:11.115Z,4.58
2019-05-10T14:49:42.237Z,4.33
2019-05-10T14:52:09.921Z,5.00
2019-05-10T14:54:43.829Z,4.42
2019-05-10T14:57:08.531Z,4.15
2019-05-10T14:59:37.157Z,4.30
2019-05-10T15:02:05.575Z,4.25
2019-05-10T15:04:49.442Z,4.30
2019-05-10T15:07:08.755Z,4.45
2019-05-10T15:09:34.328Z,4.93
2019-05-10T15:12:02.737Z,4.40
2019-05-10T15:14:31.166Z,4.80
2019-05-10T15:16:59.588Z,4.53
2019-05-10T15:19:31.254Z,4.67
2019-05-10T15:21:58.171Z,4.63
2019-05-10T15:24:26.592Z,4.70
2019-05-10T15:26:55.001Z,4.95
2019-05-10T15:29:24.818Z,5.10
2019-05-10T15:31:53.441Z,4.70
2019-05-10T15:34:21.983Z,4.87
2019-05-10T15:36:50.393Z,4.95
2019-05-10T15:39:23.143Z,5.25
2019-05-10T15:41:53.641Z,4.35
2019-05-10T15:44:19.118Z,4.45
2019-05-10T15:46:47.700Z,4.67
2019-05-10T15:49:22.788Z,4.75
2019-05-10T15:51:48.977Z,4.93
2019-05-10T15:54:17.207Z,5.03
2019-05-10T15:56:45.983Z,5.42
2019-05-10T15:59:18.906Z,4.70
2019-05-10T16:01:45.682Z,4.92
2019-05-10T16:04:14.529Z,5.40
2019-05-10T16:06:42.929Z,4.47
2019-05-10T16:09:17.439Z,5.05
2019-05-10T16:11:41.657Z,5.30
2019-05-10T16:14:10.066Z,5.00
2019-05-10T16:16:39.784Z,5.10
2019-05-10T16:19:12.828Z,5.12
2019-05-10T16:21:39.383Z,5.87
2019-05-10T16:24:07.844Z,5.30
2019-05-10T16:26:36.246Z,5.30
2019-05-10T16:29:04.725Z,5.05
2019-05-10T16:31:33.453Z,5.20
2019-05-10T16:34:02.265Z,5.55
2019-05-10T16:36:30.699Z,5.70
2019-05-10T16:39:01.782Z,5.12
2019-05-10T16:41:29.805Z,6.20
2019-05-10T16:44:00.118Z,5.78
2019-05-10T16:46:28.356Z,5.20
2019-05-10T16:48:56.842Z,6.00
2019-05-10T16:51:25.267Z,4.92
2019-05-10T16:53:53.667Z,4.97
2019-05-10T16:56:22.073Z,5.40
2019-05-10T16:58:53.005Z,5.33
2019-05-10T17:01:25.385Z,5.58
2019-05-10T17:03:59.161Z,5.08
2019-05-10T17:06:21.001Z,5.17
2019-05-10T17:08:49.470Z,4.90
2019-05-10T17:11:17.994Z,5.20
2019-05-10T17:13:46.416Z,5.33
2019-05-10T17:16:16.922Z,4.90
2019-05-10T17:18:49.766Z,4.47
2019-05-10T17:21:15.999Z,4.72
2019-05-10T17:23:46.834Z,4.45
2019-05-10T17:26:14.807Z,4.80
2019-05-10T17:28:43.226Z,4.42
2019-05-10T17:31:11.691Z,4.90
2019-05-10T17:33:42.717Z,4.58
2019-05-10T17:36:14.519Z,4.63
2019-05-10T17:38:40.733Z,4.63
2019-05-10T17:41:09.161Z,3.95
2019-05-10T17:43:37.559Z,4.40
2019-05-10T17:46:05.989Z,4.08
2019-05-10T17:48:34.385Z,4.72
2019-05-10T17:51:02.813Z,3.70
2019-05-10T17:53:31.252Z,4.90
2019-05-10T17:56:03.297Z,6.08
2019-05-10T17:58:33.943Z,5.53
2019-05-10T18:01:01.957Z,5.00
2019-05-10T18:03:30.814Z,5.05
2019-05-10T18:05:59.292Z,4.78
2019-05-10T18:08:27.743Z,4.67
2019-05-10T18:10:57.328Z,4.60
2019-05-10T18:13:26.280Z,4.73
2019-05-10T18:15:54.729Z,5.03
2019-05-10T18:18:23.161Z,4.70
2019-05-10T18:20:51.587Z,5.25
2019-05-10T18:23:21.028Z,5.28
2019-05-10T18:25:52.562Z,6.07
2019-05-10T18:28:21.649Z,5.30
2019-05-10T18:31:01.814Z,6.10
2019-05-10T18:33:30.313Z,5.10
2019-05-10T18:36:00.292Z,5.40
2019-05-10T18:38:30.984Z,5.28
2019-05-10T18:40:58.906Z,5.15
2019-05-10T18:43:27.354Z,5.30
2019-05-10T18:45:55.743Z,5.55
2019-05-10T18:48:24.690Z,5.70
2019-05-10T18:50:53.093Z,5.67
2019-05-10T18:53:21.714Z,6.08
2019-05-10T18:55:50.171Z,5.97
2019-05-10T18:58:23.438Z,5.80
2019-05-10T19:00:49.271Z,6.97
2019-05-10T19:03:17.739Z,6.40
2019-05-10T19:05:46.139Z,6.08
2019-05-10T19:08:14.574Z,7.62
2019-05-10T19:10:43.262Z,7.20
2019-05-10T19:13:12.006Z,7.70
2019-05-10T19:15:46.026Z,7.65
2019-05-10T19:18:11.025Z,7.05
2019-05-10T19:20:39.450Z,6.92
2019-05-10T19:23:13.260Z,7.15
2019-05-10T19:25:38.055Z,7.72
2019-05-10T19:28:07.206Z,8.28
2019-05-10T19:30:35.905Z,7.92
2019-05-10T19:33:04.459Z,7.80
2019-05-10T19:35:35.826Z,8.20
2019-05-10T19:38:03.123Z,8.30
2019-05-10T19:40:31.558Z,8.10
2019-05-10T19:43:00.000Z,8.80
2019-05-10T19:45:31.052Z,7.53
2019-05-10T19:47:58.579Z,7.97
2019-05-10T19:50:30.894Z,7.12
2019-05-10T19:52:58.462Z,7.28
2019-05-10T19:55:27.278Z,7.20
2019-05-10T19:57:56.622Z,6.95
2019-05-10T20:00:25.239Z,6.60
2019-05-10T20:02:53.652Z,6.70
2019-05-10T20:05:22.300Z,7.00
2019-05-10T20:07:50.706Z,8.03
2019-05-10T20:10:19.146Z,7.70
2019-05-10T20:12:47.543Z,7.33
2019-05-10T20:15:16.525Z,7.22
2019-05-10T20:17:45.341Z,6.87
2019-05-10T20:20:14.060Z,7.92
2019-05-10T20:22:42.469Z,7.78
2019-05-10T20:25:11.061Z,7.60
2019-05-10T20:27:39.489Z,8.78
2019-05-10T20:30:08.465Z,7.42
2019-05-10T20:32:36.968Z,9.00
2019-05-10T20:35:06.927Z,7.60
2019-05-10T20:37:35.409Z,7.97
2019-05-10T20:40:05.516Z,7.60
2019-05-10T20:42:33.937Z,8.08
2019-05-10T20:45:07.371Z,7.83
2019-05-10T20:47:32.498Z,8.10
2019-05-10T20:50:00.924Z,7.83
2019-05-10T20:52:29.382Z,8.88
2019-05-10T20:54:57.853Z,8.90
2019-05-10T20:57:27.126Z,8.23
2019-05-10T20:59:55.522Z,7.85
2019-05-10T21:02:24.003Z,8.33
2019-05-10T21:04:52.407Z,8.78
2019-05-10T21:07:20.841Z,8.05
2019-05-10T21:09:50.155Z,8.20
2019-05-10T21:12:18.692Z,8.28
2019-05-10T21:14:47.324Z,8.33
2019-05-10T21:17:15.795Z,8.18
2019-05-10T21:19:44.197Z,8.70
2019-05-10T21:22:12.623Z,8.98
2019-05-10T21:24:41.045Z,8.13
2019-05-10T21:27:09.478Z,8.05
2019-05-10T21:29:37.913Z,7.42
2019-05-10T21:32:06.588Z,7.87
2019-05-10T21:34:37.147Z,7.53
2019-05-10T21:37:05.585Z,7.83
2019-05-10T21:39:37.185Z,7.33
2019-05-10T21:42:05.650Z,7.78
2019-05-10T21:44:34.312Z,8.30
2019-05-10T21:47:02.769Z,7.65
2019-05-10T21:49:31.198Z,8.18
2019-05-10T21:51:59.614Z,7.75
2019-05-10T21:54:28.067Z,8.70
2019-05-10T21:56:56.490Z,8.53
2019-05-10T21:59:25.895Z,8.50
2019-05-10T22:01:54.369Z,7.35
2019-05-10T22:04:23.471Z,7.78
2019-05-10T22:06:51.921Z,8.13
2019-05-10T22:09:20.725Z,8.38
2019-05-10T22:11:49.205Z,8.60
2019-05-10T22:14:17.623Z,8.10
2019-05-10T22:16:46.013Z,8.03
2019-05-10T22:19:14.431Z,8.08
2019-05-10T22:21:42.914Z,8.03
2019-05-10T22:24:12.228Z,7.20
2019-05-10T22:26:40.686Z,7.30
2019-05-10T22:29:09.146Z,6.72
2019-05-10T22:31:37.556Z,6.97
2019-05-10T22:34:06.079Z,6.50
2019-05-10T22:36:35.202Z,7.05
2019-05-10T22:39:07.430Z,6.80
2019-05-10T22:41:35.744Z,7.08
2019-05-10T22:44:04.462Z,7.53
2019-05-10T22:46:32.870Z,6.83
2019-05-10T22:49:01.369Z,7.62
2019-05-10T22:51:29.768Z,7.15
2019-05-10T22:53:59.783Z,7.40
2019-05-10T22:56:28.315Z,7.13
2019-05-10T22:58:56.764Z,7.87
2019-05-10T23:01:25.260Z,7.67
2019-05-10T23:03:53.689Z,7.30
2019-05-10T23:06:22.103Z,7.20
2019-05-10T23:08:50.756Z,7.80
2019-05-10T23:11:19.386Z,7.13
2019-05-10T23:13:47.856Z,7.65
2019-05-10T23:16:16.270Z,7.92
2019-05-10T23:18:44.708Z,7.47
2019-05-10T23:21:13.138Z,7.62
2019-05-10T23:23:41.557Z,7.28
2019-05-10T23:26:13.095Z,8.30
2019-05-10T23:28:42.061Z,7.17
2019-05-10T23:31:10.468Z,7.60
2019-05-10T23:33:38.901Z,8.05
2019-05-10T23:36:07.308Z,7.35
2019-05-10T23:38:35.757Z,7.90
2019-05-10T23:41:04.321Z,7.30
2019-05-10T23:43:32.754Z,7.10
2019-05-10T23:46:01.156Z,7.20
2019-05-10T23:48:29.583Z,6.53
2019-05-10T23:50:58.009Z,7.58
2019-05-10T23:53:26.470Z,7.17
2019-05-10T23:55:54.980Z,7.75
2019-05-10T23:58:23.380Z,7.43
